WIF9H ENKR-ENTC
Flight info
| Callsign | WIF9H |
|---|---|
| Flight time | 0h 53m |
| Altitude | 24000 |
| Route | VADLA DCT TINOS DCT KIIKA |
| Aircraft | DH8D/M-SDE2E3FGRY/H |
Departure
| Time | 2026-05-04 20:21 |
|---|---|
| Airport | Kirkenes Airport, Høybuktmoen (ENKR) |
Arrival
| Time | 2026-05-04 21:15 |
|---|---|
| Airport | Tromsø Airport (ENTC) |
| Time | Latitude | Longitude | Altitude | Speed | Heading |
|---|---|---|---|---|---|
| 2026-05-04 19:57 | 69.72194 | 29.88385 | 293 ft | 0 kts | 159° |
| 2026-05-04 20:16 | 69.72200 | 29.88417 | 293 ft | 5 kts | 5° |
| 2026-05-04 20:17 | 69.72238 | 29.88286 | 293 ft | 10 kts | 276° |
| 2026-05-04 20:17 | 69.72265 | 29.88112 | 293 ft | 11 kts | 328° |
| 2026-05-04 20:17 | 69.72341 | 29.88026 | 293 ft | 12 kts | 340° |
| 2026-05-04 20:17 | 69.72372 | 29.87789 | 293 ft | 18 kts | 251° |
| 2026-05-04 20:18 | 69.72328 | 29.87448 | 293 ft | 15 kts | 249° |
| 2026-05-04 20:18 | 69.72294 | 29.87195 | 293 ft | 13 kts | 248° |
| 2026-05-04 20:18 | 69.72257 | 29.86918 | 293 ft | 15 kts | 252° |
| 2026-05-04 20:18 | 69.72243 | 29.86747 | 293 ft | 3 kts | 196° |
| 2026-05-04 20:19 | 69.72237 | 29.86764 | 293 ft | 0 kts | 89° |
| 2026-05-04 20:19 | 69.72240 | 29.86787 | 293 ft | 1 kts | 72° |
| 2026-05-04 20:19 | 69.72244 | 29.86818 | 293 ft | 0 kts | 69° |
| 2026-05-04 20:21 | 69.72320 | 29.87385 | 294 ft | 77 kts | 70° |
| 2026-05-04 20:21 | 69.72606 | 29.89525 | 347 ft | 138 kts | 68° |
| 2026-05-04 20:21 | 69.73692 | 29.94081 | 1574 ft | 150 kts | 27° |
| 2026-05-04 20:22 | 69.74746 | 29.94524 | 2085 ft | 164 kts | 347° |
| 2026-05-04 20:22 | 69.75566 | 29.92337 | 2712 ft | 176 kts | 295° |
| 2026-05-04 20:22 | 69.75970 | 29.88957 | 3336 ft | 184 kts | 291° |
| 2026-05-04 20:22 | 69.76329 | 29.85405 | 4039 ft | 188 kts | 290° |
| 2026-05-04 20:23 | 69.76754 | 29.81851 | 4644 ft | 186 kts | 295° |
| 2026-05-04 20:23 | 69.77267 | 29.78337 | 5206 ft | 196 kts | 296° |
| 2026-05-04 20:23 | 69.77554 | 29.74393 | 5774 ft | 210 kts | 276° |
| 2026-05-04 20:23 | 69.77528 | 29.70118 | 6425 ft | 215 kts | 272° |
| 2026-05-04 20:24 | 69.77520 | 29.65796 | 7160 ft | 216 kts | 274° |
| 2026-05-04 20:24 | 69.77548 | 29.61507 | 7908 ft | 215 kts | 274° |
| 2026-05-04 20:24 | 69.77600 | 29.57272 | 8639 ft | 215 kts | 274° |
| 2026-05-04 20:24 | 69.77669 | 29.52923 | 9370 ft | 216 kts | 274° |
| 2026-05-04 20:25 | 69.77746 | 29.48640 | 10074 ft | 217 kts | 273° |
| 2026-05-04 20:25 | 69.77828 | 29.44279 | 10760 ft | 219 kts | 272° |
| 2026-05-04 20:25 | 69.77914 | 29.39872 | 11435 ft | 221 kts | 271° |
| 2026-05-04 20:25 | 69.78001 | 29.35433 | 12069 ft | 224 kts | 271° |
| 2026-05-04 20:26 | 69.78091 | 29.30886 | 12723 ft | 227 kts | 270° |
| 2026-05-04 20:26 | 69.78178 | 29.26390 | 13396 ft | 229 kts | 270° |
| 2026-05-04 20:26 | 69.78268 | 29.21774 | 14077 ft | 232 kts | 271° |
| 2026-05-04 20:26 | 69.78358 | 29.17125 | 14739 ft | 234 kts | 271° |
| 2026-05-04 20:27 | 69.78446 | 29.12434 | 15379 ft | 237 kts | 271° |
| 2026-05-04 20:27 | 69.78535 | 29.07692 | 16013 ft | 239 kts | 271° |
| 2026-05-04 20:27 | 69.78625 | 29.02867 | 16622 ft | 241 kts | 271° |
| 2026-05-04 20:27 | 69.78713 | 28.98003 | 17175 ft | 245 kts | 272° |
| 2026-05-04 20:28 | 69.78802 | 28.93045 | 17715 ft | 248 kts | 272° |
| 2026-05-04 20:28 | 69.78889 | 28.88036 | 18230 ft | 252 kts | 272° |
| 2026-05-04 20:28 | 69.78977 | 28.82987 | 18728 ft | 255 kts | 272° |
| 2026-05-04 20:28 | 69.79064 | 28.77863 | 19209 ft | 258 kts | 272° |
| 2026-05-04 20:29 | 69.79152 | 28.72613 | 19706 ft | 260 kts | 272° |
| 2026-05-04 20:29 | 69.79237 | 28.67423 | 20141 ft | 262 kts | 272° |
| 2026-05-04 20:29 | 69.79323 | 28.62090 | 20554 ft | 264 kts | 272° |
| 2026-05-04 20:29 | 69.79407 | 28.56800 | 20944 ft | 266 kts | 272° |
| 2026-05-04 20:30 | 69.79489 | 28.51458 | 21316 ft | 268 kts | 272° |
| 2026-05-04 20:30 | 69.79572 | 28.46007 | 21674 ft | 270 kts | 272° |
| 2026-05-04 20:30 | 69.79652 | 28.40624 | 22010 ft | 272 kts | 273° |
| 2026-05-04 20:30 | 69.79733 | 28.35150 | 22337 ft | 273 kts | 273° |
| 2026-05-04 20:31 | 69.79811 | 28.29623 | 22657 ft | 275 kts | 272° |
| 2026-05-04 20:31 | 69.79889 | 28.24083 | 22953 ft | 277 kts | 272° |
| 2026-05-04 20:31 | 69.79964 | 28.18519 | 23235 ft | 278 kts | 272° |
| 2026-05-04 20:31 | 69.80039 | 28.12918 | 23485 ft | 281 kts | 272° |
| 2026-05-04 20:32 | 69.80115 | 28.07166 | 23547 ft | 289 kts | 272° |
| 2026-05-04 20:32 | 69.80191 | 28.01294 | 23556 ft | 298 kts | 272° |
| 2026-05-04 20:32 | 69.80267 | 27.95258 | 23554 ft | 306 kts | 272° |
| 2026-05-04 20:32 | 69.80343 | 27.88970 | 23548 ft | 313 kts | 272° |
| 2026-05-04 20:33 | 69.80415 | 27.82691 | 23542 ft | 318 kts | 272° |
| 2026-05-04 20:33 | 69.80489 | 27.76179 | 23539 ft | 323 kts | 272° |
| 2026-05-04 20:33 | 69.80559 | 27.69674 | 23537 ft | 326 kts | 272° |
| 2026-05-04 20:33 | 69.80628 | 27.63100 | 23536 ft | 329 kts | 272° |
| 2026-05-04 20:34 | 69.80685 | 27.56512 | 23536 ft | 331 kts | 272° |
| 2026-05-04 20:34 | 69.80753 | 27.49770 | 23535 ft | 333 kts | 272° |
| 2026-05-04 20:34 | 69.80821 | 27.43124 | 23534 ft | 334 kts | 272° |
| 2026-05-04 20:34 | 69.80890 | 27.36319 | 23534 ft | 335 kts | 272° |
| 2026-05-04 20:35 | 69.80956 | 27.29566 | 23534 ft | 336 kts | 271° |
| 2026-05-04 20:35 | 69.81020 | 27.22868 | 23534 ft | 336 kts | 271° |
| 2026-05-04 20:35 | 69.81082 | 27.16066 | 23534 ft | 337 kts | 271° |
| 2026-05-04 20:35 | 69.81143 | 27.09330 | 23534 ft | 337 kts | 271° |
| 2026-05-04 20:36 | 69.81205 | 27.02496 | 23539 ft | 337 kts | 271° |
| 2026-05-04 20:36 | 69.81267 | 26.95689 | 23546 ft | 338 kts | 271° |
| 2026-05-04 20:36 | 69.81332 | 26.88942 | 23553 ft | 338 kts | 271° |
| 2026-05-04 20:36 | 69.81399 | 26.82078 | 23560 ft | 339 kts | 271° |
| 2026-05-04 20:37 | 69.81464 | 26.75267 | 23561 ft | 340 kts | 271° |
| 2026-05-04 20:37 | 69.81529 | 26.68428 | 23562 ft | 340 kts | 271° |
| 2026-05-04 20:37 | 69.81593 | 26.61616 | 23562 ft | 341 kts | 271° |
| 2026-05-04 20:37 | 69.81655 | 26.54704 | 23573 ft | 341 kts | 271° |
| 2026-05-04 20:38 | 69.81715 | 26.47890 | 23587 ft | 341 kts | 272° |
| 2026-05-04 20:38 | 69.81776 | 26.40929 | 23603 ft | 341 kts | 272° |
| 2026-05-04 20:38 | 69.81833 | 26.34161 | 23611 ft | 341 kts | 271° |
| 2026-05-04 20:38 | 69.81889 | 26.27265 | 23609 ft | 341 kts | 271° |
| 2026-05-04 20:39 | 69.81943 | 26.20367 | 23604 ft | 341 kts | 271° |
| 2026-05-04 20:39 | 69.81995 | 26.13487 | 23599 ft | 342 kts | 271° |
| 2026-05-04 20:39 | 69.82046 | 26.06623 | 23596 ft | 342 kts | 271° |
| 2026-05-04 20:39 | 69.82095 | 25.99719 | 23593 ft | 342 kts | 271° |
| 2026-05-04 20:40 | 69.82143 | 25.92952 | 23590 ft | 342 kts | 271° |
| 2026-05-04 20:40 | 69.82190 | 25.86009 | 23588 ft | 342 kts | 271° |
| 2026-05-04 20:40 | 69.82234 | 25.79098 | 23587 ft | 342 kts | 271° |
| 2026-05-04 20:40 | 69.82278 | 25.72282 | 23587 ft | 342 kts | 271° |
| 2026-05-04 20:41 | 69.82320 | 25.65378 | 23587 ft | 342 kts | 271° |
| 2026-05-04 20:41 | 69.82362 | 25.58490 | 23587 ft | 342 kts | 271° |
| 2026-05-04 20:41 | 69.82400 | 25.51582 | 23587 ft | 342 kts | 271° |
| 2026-05-04 20:41 | 69.82439 | 25.44740 | 23588 ft | 342 kts | 271° |
| 2026-05-04 20:42 | 69.82474 | 25.37860 | 23587 ft | 342 kts | 271° |
| 2026-05-04 20:42 | 69.82507 | 25.30963 | 23588 ft | 342 kts | 270° |
| 2026-05-04 20:42 | 69.82536 | 25.24006 | 23587 ft | 341 kts | 270° |
| 2026-05-04 20:42 | 69.82563 | 25.17184 | 23588 ft | 341 kts | 270° |
| 2026-05-04 20:43 | 69.82591 | 25.10303 | 23589 ft | 341 kts | 270° |
| 2026-05-04 20:43 | 69.82621 | 25.03470 | 23587 ft | 339 kts | 270° |
| 2026-05-04 20:43 | 69.82656 | 24.96695 | 23587 ft | 336 kts | 270° |
| 2026-05-04 20:43 | 69.82697 | 24.89916 | 23585 ft | 333 kts | 270° |
| 2026-05-04 20:44 | 69.82739 | 24.83315 | 23585 ft | 330 kts | 270° |
| 2026-05-04 20:44 | 69.82779 | 24.76649 | 23585 ft | 328 kts | 270° |
| 2026-05-04 20:44 | 69.82817 | 24.70123 | 23586 ft | 326 kts | 270° |
| 2026-05-04 20:44 | 69.82855 | 24.63488 | 23586 ft | 325 kts | 270° |
| 2026-05-04 20:45 | 69.82892 | 24.56947 | 23586 ft | 323 kts | 270° |
| 2026-05-04 20:45 | 69.82926 | 24.50498 | 23586 ft | 322 kts | 270° |
| 2026-05-04 20:45 | 69.82961 | 24.44007 | 23587 ft | 322 kts | 270° |
| 2026-05-04 20:45 | 69.82993 | 24.37476 | 23586 ft | 321 kts | 271° |
| 2026-05-04 20:46 | 69.83024 | 24.31048 | 23587 ft | 321 kts | 270° |
| 2026-05-04 20:46 | 69.83052 | 24.24574 | 23587 ft | 321 kts | 270° |
| 2026-05-04 20:46 | 69.83079 | 24.18063 | 23585 ft | 321 kts | 270° |
| 2026-05-04 20:46 | 69.83104 | 24.11602 | 23579 ft | 321 kts | 270° |
| 2026-05-04 20:47 | 69.83128 | 24.05239 | 23572 ft | 321 kts | 270° |
| 2026-05-04 20:47 | 69.83151 | 23.98764 | 23564 ft | 320 kts | 270° |
| 2026-05-04 20:47 | 69.83172 | 23.92325 | 23562 ft | 320 kts | 270° |
| 2026-05-04 20:47 | 69.83193 | 23.85830 | 23561 ft | 320 kts | 270° |
| 2026-05-04 20:48 | 69.83213 | 23.79445 | 23560 ft | 320 kts | 270° |
| 2026-05-04 20:48 | 69.83231 | 23.72952 | 23560 ft | 320 kts | 270° |
| 2026-05-04 20:48 | 69.83248 | 23.66491 | 23563 ft | 321 kts | 270° |
| 2026-05-04 20:48 | 69.83264 | 23.60052 | 23562 ft | 324 kts | 270° |
| 2026-05-04 20:49 | 69.83279 | 23.53488 | 23562 ft | 327 kts | 270° |
| 2026-05-04 20:49 | 69.83294 | 23.46889 | 23562 ft | 329 kts | 270° |
| 2026-05-04 20:49 | 69.83306 | 23.40200 | 23562 ft | 330 kts | 270° |
| 2026-05-04 20:49 | 69.83318 | 23.33570 | 23559 ft | 329 kts | 269° |
| 2026-05-04 20:50 | 69.83324 | 23.27012 | 23559 ft | 327 kts | 269° |
| 2026-05-04 20:50 | 69.83328 | 23.20437 | 23559 ft | 326 kts | 269° |
| 2026-05-04 20:50 | 69.83332 | 23.13840 | 23560 ft | 326 kts | 269° |
| 2026-05-04 20:50 | 69.83334 | 23.07326 | 23560 ft | 325 kts | 269° |
| 2026-05-04 20:51 | 69.83335 | 23.00813 | 23560 ft | 324 kts | 269° |
| 2026-05-04 20:51 | 69.83337 | 22.94251 | 23561 ft | 324 kts | 269° |
| 2026-05-04 20:51 | 69.83346 | 22.87715 | 23560 ft | 323 kts | 269° |
| 2026-05-04 20:51 | 69.83361 | 22.81177 | 23560 ft | 322 kts | 269° |
| 2026-05-04 20:52 | 69.83384 | 22.74674 | 23561 ft | 322 kts | 269° |
| 2026-05-04 20:52 | 69.83409 | 22.68190 | 23564 ft | 321 kts | 269° |
| 2026-05-04 20:52 | 69.83433 | 22.61735 | 23567 ft | 321 kts | 269° |
| 2026-05-04 20:52 | 69.83457 | 22.55286 | 23571 ft | 321 kts | 269° |
| 2026-05-04 20:53 | 69.83479 | 22.48845 | 23574 ft | 320 kts | 269° |
| 2026-05-04 20:53 | 69.83501 | 22.42396 | 23579 ft | 321 kts | 269° |
| 2026-05-04 20:53 | 69.83521 | 22.35940 | 23583 ft | 322 kts | 269° |
| 2026-05-04 20:53 | 69.83539 | 22.29452 | 23586 ft | 321 kts | 269° |
| 2026-05-04 20:54 | 69.83554 | 22.22971 | 23588 ft | 322 kts | 269° |
| 2026-05-04 20:54 | 69.83568 | 22.16410 | 23589 ft | 323 kts | 269° |
| 2026-05-04 20:54 | 69.83581 | 22.09897 | 23588 ft | 324 kts | 269° |
| 2026-05-04 20:54 | 69.83591 | 22.03369 | 23588 ft | 324 kts | 269° |
| 2026-05-04 20:55 | 69.83601 | 21.96841 | 23587 ft | 324 kts | 269° |
| 2026-05-04 20:55 | 69.83609 | 21.90277 | 23588 ft | 325 kts | 269° |
| 2026-05-04 20:55 | 69.83616 | 21.83770 | 23588 ft | 325 kts | 269° |
| 2026-05-04 20:55 | 69.83622 | 21.77180 | 23584 ft | 325 kts | 269° |
| 2026-05-04 20:56 | 69.83626 | 21.70678 | 23577 ft | 325 kts | 269° |
| 2026-05-04 20:56 | 69.83629 | 21.64161 | 23570 ft | 326 kts | 269° |
| 2026-05-04 20:56 | 69.83631 | 21.57520 | 23563 ft | 326 kts | 269° |
| 2026-05-04 20:56 | 69.83631 | 21.50987 | 23560 ft | 325 kts | 269° |
| 2026-05-04 20:57 | 69.83629 | 21.44469 | 23560 ft | 325 kts | 269° |
| 2026-05-04 20:57 | 69.83622 | 21.37886 | 23560 ft | 325 kts | 269° |
| 2026-05-04 20:57 | 69.83612 | 21.31377 | 23560 ft | 324 kts | 268° |
| 2026-05-04 20:57 | 69.83599 | 21.24841 | 23561 ft | 325 kts | 268° |
| 2026-05-04 20:58 | 69.83585 | 21.18244 | 23561 ft | 325 kts | 268° |
| 2026-05-04 20:58 | 69.83569 | 21.11718 | 23561 ft | 325 kts | 268° |
| 2026-05-04 20:58 | 69.83553 | 21.05183 | 23561 ft | 325 kts | 268° |
| 2026-05-04 20:58 | 69.83542 | 20.98602 | 23548 ft | 325 kts | 268° |
| 2026-05-04 20:59 | 69.83539 | 20.91960 | 23181 ft | 335 kts | 268° |
| 2026-05-04 20:59 | 69.83546 | 20.85200 | 22762 ft | 335 kts | 268° |
| 2026-05-04 20:59 | 69.83559 | 20.78438 | 22332 ft | 331 kts | 268° |
| 2026-05-04 20:59 | 69.83572 | 20.71902 | 21973 ft | 326 kts | 268° |
| 2026-05-04 21:00 | 69.83587 | 20.65303 | 21657 ft | 321 kts | 268° |
| 2026-05-04 21:00 | 69.83601 | 20.58964 | 21396 ft | 315 kts | 268° |
| 2026-05-04 21:00 | 69.83617 | 20.52670 | 21140 ft | 310 kts | 268° |
| 2026-05-04 21:00 | 69.83634 | 20.46415 | 20883 ft | 306 kts | 268° |
| 2026-05-04 21:01 | 69.83651 | 20.40321 | 20564 ft | 305 kts | 268° |
| 2026-05-04 21:01 | 69.83669 | 20.34130 | 20189 ft | 305 kts | 267° |
| 2026-05-04 21:01 | 69.83472 | 20.28083 | 19793 ft | 302 kts | 252° |
| 2026-05-04 21:01 | 69.82436 | 20.22921 | 19411 ft | 300 kts | 229° |
| 2026-05-04 21:02 | 69.80952 | 20.18588 | 18934 ft | 304 kts | 225° |
| 2026-05-04 21:02 | 69.79466 | 20.14263 | 18511 ft | 304 kts | 225° |
| 2026-05-04 21:02 | 69.77971 | 20.09919 | 18102 ft | 305 kts | 225° |
| 2026-05-04 21:02 | 69.76491 | 20.05629 | 17704 ft | 304 kts | 225° |
| 2026-05-04 21:03 | 69.74992 | 20.01296 | 17301 ft | 304 kts | 225° |
| 2026-05-04 21:03 | 69.73517 | 19.97035 | 16906 ft | 303 kts | 225° |
| 2026-05-04 21:03 | 69.72035 | 19.92765 | 16509 ft | 302 kts | 225° |
| 2026-05-04 21:03 | 69.70546 | 19.88484 | 16111 ft | 302 kts | 225° |
| 2026-05-04 21:04 | 69.69057 | 19.84216 | 15751 ft | 299 kts | 225° |
| 2026-05-04 21:04 | 69.67628 | 19.80122 | 15673 ft | 289 kts | 225° |
| 2026-05-04 21:04 | 69.66212 | 19.76073 | 15391 ft | 287 kts | 225° |
| 2026-05-04 21:04 | 69.64794 | 19.72025 | 15047 ft | 287 kts | 225° |
| 2026-05-04 21:05 | 69.63377 | 19.67981 | 14682 ft | 287 kts | 225° |
| 2026-05-04 21:05 | 69.61954 | 19.63934 | 14310 ft | 288 kts | 225° |
| 2026-05-04 21:05 | 69.60545 | 19.59935 | 13940 ft | 288 kts | 225° |
| 2026-05-04 21:05 | 69.59131 | 19.55929 | 13568 ft | 288 kts | 225° |
| 2026-05-04 21:06 | 69.57716 | 19.51929 | 13185 ft | 281 kts | 225° |
| 2026-05-04 21:06 | 69.56352 | 19.48090 | 12826 ft | 271 kts | 225° |
| 2026-05-04 21:06 | 69.55036 | 19.44393 | 12481 ft | 261 kts | 225° |
| 2026-05-04 21:06 | 69.53820 | 19.40563 | 12068 ft | 256 kts | 229° |
| 2026-05-04 21:07 | 69.52663 | 19.36891 | 11756 ft | 245 kts | 227° |
| 2026-05-04 21:07 | 69.51527 | 19.33432 | 11425 ft | 233 kts | 225° |
| 2026-05-04 21:07 | 69.50349 | 19.30416 | 11010 ft | 225 kts | 217° |
| 2026-05-04 21:07 | 69.49120 | 19.27750 | 10555 ft | 220 kts | 216° |
| 2026-05-04 21:08 | 69.47976 | 19.24966 | 10090 ft | 217 kts | 218° |
| 2026-05-04 21:08 | 69.46826 | 19.22203 | 9516 ft | 218 kts | 219° |
| 2026-05-04 21:08 | 69.45836 | 19.18904 | 8952 ft | 222 kts | 233° |
| 2026-05-04 21:08 | 69.45174 | 19.14972 | 8550 ft | 220 kts | 246° |
| 2026-05-04 21:09 | 69.44823 | 19.10664 | 7967 ft | 228 kts | 257° |
| 2026-05-04 21:09 | 69.44720 | 19.06129 | 7328 ft | 236 kts | 268° |
| 2026-05-04 21:09 | 69.44999 | 19.01511 | 6833 ft | 238 kts | 284° |
| 2026-05-04 21:09 | 69.45677 | 18.97289 | 6402 ft | 236 kts | 300° |
| 2026-05-04 21:10 | 69.46690 | 18.93600 | 5966 ft | 232 kts | 315° |
| 2026-05-04 21:10 | 69.47927 | 18.90919 | 5703 ft | 220 kts | 331° |
| 2026-05-04 21:10 | 69.49303 | 18.89099 | 5271 ft | 217 kts | 342° |
| 2026-05-04 21:10 | 69.50737 | 18.87948 | 4868 ft | 212 kts | 351° |
| 2026-05-04 21:11 | 69.52166 | 18.87320 | 4508 ft | 206 kts | 357° |
| 2026-05-04 21:11 | 69.53570 | 18.87029 | 4155 ft | 200 kts | 0° |
| 2026-05-04 21:11 | 69.54955 | 18.86854 | 3704 ft | 201 kts | 2° |
| 2026-05-04 21:11 | 69.56325 | 18.86750 | 3379 ft | 188 kts | 1° |
| 2026-05-04 21:12 | 69.57564 | 18.86638 | 3036 ft | 175 kts | 2° |
| 2026-05-04 21:12 | 69.58776 | 18.86574 | 2734 ft | 172 kts | 3° |
| 2026-05-04 21:12 | 69.59967 | 18.86623 | 2357 ft | 168 kts | 6° |
| 2026-05-04 21:12 | 69.61100 | 18.86915 | 1886 ft | 163 kts | 12° |
| 2026-05-04 21:13 | 69.62175 | 18.87541 | 1503 ft | 151 kts | 16° |
| 2026-05-04 21:13 | 69.63149 | 18.88289 | 1131 ft | 141 kts | 19° |
| 2026-05-04 21:13 | 69.64031 | 18.89000 | 840 ft | 126 kts | 17° |
| 2026-05-04 21:13 | 69.64884 | 18.89537 | 594 ft | 120 kts | 15° |
| 2026-05-04 21:14 | 69.65663 | 18.90058 | 323 ft | 114 kts | 16° |
| 2026-05-04 21:14 | 69.66441 | 18.90618 | 215 ft | 116 kts | 16° |
| 2026-05-04 21:14 | 69.67225 | 18.91143 | 76 ft | 114 kts | 16° |
| 2026-05-04 21:14 | 69.67937 | 18.91631 | 36 ft | 80 kts | 13° |
| 2026-05-04 21:15 | 69.68259 | 18.91842 | 33 ft | 17 kts | 14° |
| 2026-05-04 21:15 | 69.68325 | 18.91664 | 27 ft | 9 kts | 285° |
| 2026-05-04 21:15 | 69.68330 | 18.91615 | 27 ft | 3 kts | 284° |
| 2026-05-04 21:15 | 69.68301 | 18.91476 | 27 ft | 10 kts | 196° |
| 2026-05-04 21:16 | 69.68255 | 18.91447 | 27 ft | 3 kts | 192° |
| 2026-05-04 21:16 | 69.68205 | 18.91417 | 28 ft | 11 kts | 192° |
| 2026-05-04 21:16 | 69.68124 | 18.91362 | 31 ft | 9 kts | 193° |
| 2026-05-04 21:16 | 69.68101 | 18.91266 | 29 ft | 5 kts | 283° |
| 2026-05-04 21:17 | 69.68114 | 18.91119 | 27 ft | 7 kts | 283° |
| 2026-05-04 21:17 | 69.68121 | 18.91034 | 27 ft | 1 kts | 283° |
| 2026-05-04 21:17 | 69.68121 | 18.91032 | 27 ft | 0 kts | 283° |